sensor_id;sensor_type;location;lat;lon;timestamp;pressure;altitude;pressure_sealevel;temperature;humidity
73651;BME280;61944;52.538;6.108;2023-04-29T00:00:25;101242.78;;;10.36;100.00
73651;BME280;61944;52.538;6.108;2023-04-29T00:02:51;101247.22;;;10.37;100.00
73651;BME280;61944;52.538;6.108;2023-04-29T00:05:17;101252.53;;;10.43;100.00
73651;BME280;61944;52.538;6.108;2023-04-29T00:07:42;101258.78;;;10.36;100.00
73651;BME280;61944;52.538;6.108;2023-04-29T00:10:08;101235.75;;;10.07;100.00
73651;BME280;61944;52.538;6.108;2023-04-29T00:12:33;101255.47;;;10.30;100.00
73651;BME280;61944;52.538;6.108;2023-04-29T00:14:58;101248.47;;;10.40;100.00
73651;BME280;61944;52.538;6.108;2023-04-29T00:17:25;101251.59;;;10.19;100.00
73651;BME280;61944;52.538;6.108;2023-04-29T00:19:50;101269.72;;;10.25;100.00
73651;BME280;61944;52.538;6.108;2023-04-29T00:22:16;101263.50;;;10.16;100.00
73651;BME280;61944;52.538;6.108;2023-04-29T00:24:42;101262.56;;;10.28;100.00
73651;BME280;61944;52.538;6.108;2023-04-29T00:27:07;101269.84;;;10.13;100.00
73651;BME280;61944;52.538;6.108;2023-04-29T00:29:32;101273.13;;;10.34;100.00
73651;BME280;61944;52.538;6.108;2023-04-29T00:31:58;101282.28;;;10.51;100.00
73651;BME280;61944;52.538;6.108;2023-04-29T00:34:23;101280.41;;;10.39;100.00
73651;BME280;61944;52.538;6.108;2023-04-29T00:36:48;101275.94;;;10.54;100.00
73651;BME280;61944;52.538;6.108;2023-04-29T00:39:14;101289.75;;;10.27;100.00
73651;BME280;61944;52.538;6.108;2023-04-29T00:41:40;101285.31;;;10.26;100.00
73651;BME280;61944;52.538;6.108;2023-04-29T00:44:05;101291.19;;;10.02;100.00
73651;BME280;61944;52.538;6.108;2023-04-29T00:46:31;101303.13;;;10.18;100.00
73651;BME280;61944;52.538;6.108;2023-04-29T00:48:57;101296.25;;;10.31;100.00
73651;BME280;61944;52.538;6.108;2023-04-29T00:51:23;101299.16;;;10.19;100.00
73651;BME280;61944;52.538;6.108;2023-04-29T00:53:48;101296.88;;;10.25;100.00
73651;BME280;61944;52.538;6.108;2023-04-29T00:56:14;101301.59;;;10.21;100.00
73651;BME280;61944;52.538;6.108;2023-04-29T00:58:40;101299.31;;;10.26;100.00
73651;BME280;61944;52.538;6.108;2023-04-29T01:01:10;101311.06;;;10.16;100.00
73651;BME280;61944;52.538;6.108;2023-04-29T01:03:35;101311.50;;;10.18;100.00
73651;BME280;61944;52.538;6.108;2023-04-29T01:11:27;101316.50;;;10.09;100.00
73651;BME280;61944;52.538;6.108;2023-04-29T01:14:00;101326.13;;;10.27;100.00
73651;BME280;61944;52.538;6.108;2023-04-29T01:16:37;101325.69;;;10.09;100.00
73651;BME280;61944;52.538;6.108;2023-04-29T01:19:54;101328.91;;;10.27;100.00
73651;BME280;61944;52.538;6.108;2023-04-29T01:22:19;101333.63;;;10.07;100.00
73651;BME280;61944;52.538;6.108;2023-04-29T01:24:46;101334.91;;;10.10;100.00
73651;BME280;61944;52.538;6.108;2023-04-29T01:27:29;101348.91;;;10.10;100.00
73651;BME280;61944;52.538;6.108;2023-04-29T01:32:59;101347.63;;;10.07;100.00
73651;BME280;61944;52.538;6.108;2023-04-29T01:38:29;101352.41;;;10.07;100.00
73651;BME280;61944;52.538;6.108;2023-04-29T01:41:06;101351.50;;;10.03;100.00
73651;BME280;61944;52.538;6.108;2023-04-29T01:43:36;101336.72;;;9.86;100.00
73651;BME280;61944;52.538;6.108;2023-04-29T01:46:04;101367.88;;;9.85;100.00
73651;BME280;61944;52.538;6.108;2023-04-29T01:48:31;101365.94;;;10.05;100.00
73651;BME280;61944;52.538;6.108;2023-04-29T01:50:56;101361.09;;;10.02;100.00
73651;BME280;61944;52.538;6.108;2023-04-29T01:53:22;101374.88;;;9.94;100.00
73651;BME280;61944;52.538;6.108;2023-04-29T01:55:47;101362.44;;;9.92;100.00
73651;BME280;61944;52.538;6.108;2023-04-29T01:58:13;101374.34;;;9.89;100.00
73651;BME280;61944;52.538;6.108;2023-04-29T02:00:38;101374.97;;;9.82;100.00
73651;BME280;61944;52.538;6.108;2023-04-29T02:03:04;101383.81;;;10.00;100.00
73651;BME280;61944;52.538;6.108;2023-04-29T02:05:29;101378.41;;;9.91;100.00
73651;BME280;61944;52.538;6.108;2023-04-29T02:07:58;101383.28;;;9.94;100.00
73651;BME280;61944;52.538;6.108;2023-04-29T02:10:23;101386.53;;;9.96;100.00
73651;BME280;61944;52.538;6.108;2023-04-29T02:12:49;101385.63;;;9.92;100.00
73651;BME280;61944;52.538;6.108;2023-04-29T02:15:14;101394.53;;;9.82;100.00
73651;BME280;61944;52.538;6.108;2023-04-29T02:17:39;101391.56;;;9.75;100.00
73651;BME280;61944;52.538;6.108;2023-04-29T02:20:06;101405.09;;;9.73;100.00
73651;BME280;61944;52.538;6.108;2023-04-29T02:22:31;101403.28;;;9.65;100.00
73651;BME280;61944;52.538;6.108;2023-04-29T02:24:57;101416.19;;;9.69;100.00
73651;BME280;61944;52.538;6.108;2023-04-29T02:27:22;101414.84;;;9.79;100.00
73651;BME280;61944;52.538;6.108;2023-04-29T02:29:48;101423.41;;;9.70;100.00
73651;BME280;61944;52.538;6.108;2023-04-29T02:32:14;101416.28;;;9.73;100.00
73651;BME280;61944;52.538;6.108;2023-04-29T02:34:40;101417.81;;;9.70;100.00
73651;BME280;61944;52.538;6.108;2023-04-29T02:37:05;101420.25;;;9.72;100.00
73651;BME280;61944;52.538;6.108;2023-04-29T02:39:30;101421.06;;;9.72;100.00
73651;BME280;61944;52.538;6.108;2023-04-29T02:41:56;101426.72;;;9.76;100.00
73651;BME280;61944;52.538;6.108;2023-04-29T02:44:22;101419.88;;;9.73;100.00
73651;BME280;61944;52.538;6.108;2023-04-29T02:46:48;101428.38;;;9.77;100.00
73651;BME280;61944;52.538;6.108;2023-04-29T02:49:13;101425.22;;;9.79;100.00
73651;BME280;61944;52.538;6.108;2023-04-29T02:51:39;101428.94;;;9.83;100.00
73651;BME280;61944;52.538;6.108;2023-04-29T02:54:05;101433.97;;;9.77;100.00
73651;BME280;61944;52.538;6.108;2023-04-29T02:56:31;101432.25;;;9.88;100.00
73651;BME280;61944;52.538;6.108;2023-04-29T02:58:56;101430.53;;;9.68;100.00
73651;BME280;61944;52.538;6.108;2023-04-29T03:01:21;101450.09;;;9.84;100.00
73651;BME280;61944;52.538;6.108;2023-04-29T03:03:48;101444.63;;;9.87;100.00
73651;BME280;61944;52.538;6.108;2023-04-29T03:06:13;101454.25;;;9.90;100.00
73651;BME280;61944;52.538;6.108;2023-04-29T03:08:40;101434.69;;;9.74;100.00
73651;BME280;61944;52.538;6.108;2023-04-29T03:11:05;101439.19;;;9.79;100.00
73651;BME280;61944;52.538;6.108;2023-04-29T03:13:30;101456.38;;;9.65;100.00
73651;BME280;61944;52.538;6.108;2023-04-29T03:15:56;101455.22;;;9.66;100.00
73651;BME280;61944;52.538;6.108;2023-04-29T03:18:23;101457.31;;;9.69;100.00
73651;BME280;61944;52.538;6.108;2023-04-29T03:20:49;101452.91;;;9.68;100.00
73651;BME280;61944;52.538;6.108;2023-04-29T03:23:14;101468.03;;;9.67;100.00
73651;BME280;61944;52.538;6.108;2023-04-29T03:25:39;101467.31;;;9.70;100.00
73651;BME280;61944;52.538;6.108;2023-04-29T03:28:05;101462.59;;;9.58;100.00
73651;BME280;61944;52.538;6.108;2023-04-29T03:30:31;101471.22;;;9.81;100.00
73651;BME280;61944;52.538;6.108;2023-04-29T03:32:57;101470.75;;;9.79;100.00
73651;BME280;61944;52.538;6.108;2023-04-29T03:35:22;101469.66;;;9.68;100.00
73651;BME280;61944;52.538;6.108;2023-04-29T03:37:47;101470.88;;;9.54;100.00
73651;BME280;61944;52.538;6.108;2023-04-29T03:40:13;101472.00;;;9.66;100.00
73651;BME280;61944;52.538;6.108;2023-04-29T03:42:38;101468.94;;;9.71;100.00
73651;BME280;61944;52.538;6.108;2023-04-29T03:45:04;101476.47;;;9.83;100.00
73651;BME280;61944;52.538;6.108;2023-04-29T03:47:30;101472.13;;;9.85;100.00
73651;BME280;61944;52.538;6.108;2023-04-29T03:49:55;101474.00;;;9.81;100.00
73651;BME280;61944;52.538;6.108;2023-04-29T03:52:21;101477.50;;;9.78;100.00
73651;BME280;61944;52.538;6.108;2023-04-29T03:54:46;101475.94;;;9.65;100.00
73651;BME280;61944;52.538;6.108;2023-04-29T03:57:11;101480.63;;;9.61;100.00
73651;BME280;61944;52.538;6.108;2023-04-29T03:59:37;101488.66;;;9.62;100.00
73651;BME280;61944;52.538;6.108;2023-04-29T04:02:02;101497.09;;;9.50;100.00
73651;BME280;61944;52.538;6.108;2023-04-29T04:04:27;101504.00;;;9.40;100.00
73651;BME280;61944;52.538;6.108;2023-04-29T04:06:53;101508.38;;;9.53;100.00
73651;BME280;61944;52.538;6.108;2023-04-29T04:09:18;101503.00;;;9.61;100.00
73651;BME280;61944;52.538;6.108;2023-04-29T04:11:44;101500.25;;;9.48;100.00
73651;BME280;61944;52.538;6.108;2023-04-29T04:14:09;101497.63;;;9.68;100.00
73651;BME280;61944;52.538;6.108;2023-04-29T04:16:35;101508.06;;;9.71;100.00
73651;BME280;61944;52.538;6.108;2023-04-29T04:19:00;101503.41;;;9.75;100.00
73651;BME280;61944;52.538;6.108;2023-04-29T04:21:26;101510.41;;;9.69;100.00
73651;BME280;61944;52.538;6.108;2023-04-29T04:23:52;101516.06;;;9.56;100.00
73651;BME280;61944;52.538;6.108;2023-04-29T04:26:17;101514.16;;;9.61;100.00
73651;BME280;61944;52.538;6.108;2023-04-29T04:28:44;101524.44;;;9.56;100.00
73651;BME280;61944;52.538;6.108;2023-04-29T04:31:10;101530.03;;;9.56;100.00
73651;BME280;61944;52.538;6.108;2023-04-29T04:33:35;101530.31;;;9.39;100.00
73651;BME280;61944;52.538;6.108;2023-04-29T04:36:01;101531.94;;;9.40;100.00
73651;BME280;61944;52.538;6.108;2023-04-29T04:38:26;101526.88;;;9.58;100.00
73651;BME280;61944;52.538;6.108;2023-04-29T04:40:52;101535.38;;;9.21;100.00
73651;BME280;61944;52.538;6.108;2023-04-29T04:43:17;101541.53;;;9.27;100.00
73651;BME280;61944;52.538;6.108;2023-04-29T04:45:43;101539.78;;;9.34;100.00
73651;BME280;61944;52.538;6.108;2023-04-29T04:48:08;101553.41;;;9.36;100.00
73651;BME280;61944;52.538;6.108;2023-04-29T04:50:33;101555.00;;;9.37;100.00
73651;BME280;61944;52.538;6.108;2023-04-29T04:52:59;101555.72;;;9.34;100.00
73651;BME280;61944;52.538;6.108;2023-04-29T04:55:25;101557.31;;;9.47;100.00
73651;BME280;61944;52.538;6.108;2023-04-29T04:57:50;101566.75;;;9.43;100.00
73651;BME280;61944;52.538;6.108;2023-04-29T05:00:16;101566.38;;;9.44;100.00
73651;BME280;61944;52.538;6.108;2023-04-29T05:02:41;101572.69;;;9.41;100.00
73651;BME280;61944;52.538;6.108;2023-04-29T05:05:07;101569.19;;;9.44;100.00
73651;BME280;61944;52.538;6.108;2023-04-29T05:07:32;101571.75;;;9.49;100.00
73651;BME280;61944;52.538;6.108;2023-04-29T05:10:00;101571.50;;;9.42;100.00
73651;BME280;61944;52.538;6.108;2023-04-29T05:12:32;101570.16;;;9.36;100.00
73651;BME280;61944;52.538;6.108;2023-04-29T05:14:59;101574.78;;;9.44;100.00
73651;BME280;61944;52.538;6.108;2023-04-29T05:17:25;101570.63;;;9.26;100.00
73651;BME280;61944;52.538;6.108;2023-04-29T05:19:50;101578.44;;;9.20;100.00
73651;BME280;61944;52.538;6.108;2023-04-29T05:22:15;101585.88;;;9.41;100.00
73651;BME280;61944;52.538;6.108;2023-04-29T05:24:41;101575.75;;;9.36;100.00
73651;BME280;61944;52.538;6.108;2023-04-29T05:27:06;101593.81;;;9.26;100.00
73651;BME280;61944;52.538;6.108;2023-04-29T05:29:32;101594.84;;;9.34;100.00
73651;BME280;61944;52.538;6.108;2023-04-29T05:31:57;101598.31;;;9.31;100.00
73651;BME280;61944;52.538;6.108;2023-04-29T05:34:23;101591.13;;;9.18;100.00
73651;BME280;61944;52.538;6.108;2023-04-29T05:36:52;101606.97;;;9.26;100.00
73651;BME280;61944;52.538;6.108;2023-04-29T05:39:17;101602.06;;;9.23;100.00
73651;BME280;61944;52.538;6.108;2023-04-29T05:41:43;101613.34;;;9.26;100.00
73651;BME280;61944;52.538;6.108;2023-04-29T05:44:08;101612.28;;;9.31;100.00
73651;BME280;61944;52.538;6.108;2023-04-29T05:46:34;101625.78;;;9.29;100.00
73651;BME280;61944;52.538;6.108;2023-04-29T05:48:59;101623.69;;;9.38;100.00
73651;BME280;61944;52.538;6.108;2023-04-29T05:51:25;101613.69;;;9.25;100.00
73651;BME280;61944;52.538;6.108;2023-04-29T05:53:50;101623.69;;;9.38;100.00
73651;BME280;61944;52.538;6.108;2023-04-29T05:56:15;101625.59;;;9.22;100.00
73651;BME280;61944;52.538;6.108;2023-04-29T05:58:42;101630.91;;;9.39;100.00
73651;BME280;61944;52.538;6.108;2023-04-29T06:01:07;101628.84;;;9.36;100.00
73651;BME280;61944;52.538;6.108;2023-04-29T06:03:32;101639.31;;;9.27;100.00
73651;BME280;61944;52.538;6.108;2023-04-29T06:05:58;101648.59;;;9.43;100.00
73651;BME280;61944;52.538;6.108;2023-04-29T06:08:24;101646.03;;;9.38;100.00
73651;BME280;61944;52.538;6.108;2023-04-29T06:10:49;101650.47;;;9.27;100.00
73651;BME280;61944;52.538;6.108;2023-04-29T06:13:18;101642.34;;;9.22;100.00
73651;BME280;61944;52.538;6.108;2023-04-29T06:15:43;101643.84;;;9.31;100.00
73651;BME280;61944;52.538;6.108;2023-04-29T06:18:08;101651.97;;;9.49;100.00
73651;BME280;61944;52.538;6.108;2023-04-29T06:20:34;101664.19;;;9.44;100.00
73651;BME280;61944;52.538;6.108;2023-04-29T06:22:59;101665.16;;;9.36;100.00
73651;BME280;61944;52.538;6.108;2023-04-29T06:25:25;101663.72;;;9.42;100.00
73651;BME280;61944;52.538;6.108;2023-04-29T06:27:50;101668.63;;;9.45;100.00
73651;BME280;61944;52.538;6.108;2023-04-29T06:30:15;101661.84;;;9.46;100.00
73651;BME280;61944;52.538;6.108;2023-04-29T06:32:41;101670.81;;;9.64;100.00
73651;BME280;61944;52.538;6.108;2023-04-29T06:35:06;101672.81;;;9.64;100.00
73651;BME280;61944;52.538;6.108;2023-04-29T06:37:32;101679.34;;;9.55;100.00
73651;BME280;61944;52.538;6.108;2023-04-29T06:39:58;101680.31;;;9.88;100.00
73651;BME280;61944;52.538;6.108;2023-04-29T06:42:23;101686.19;;;9.70;100.00
73651;BME280;61944;52.538;6.108;2023-04-29T06:44:48;101682.81;;;9.65;100.00
73651;BME280;61944;52.538;6.108;2023-04-29T06:47:14;101687.59;;;9.64;100.00
73651;BME280;61944;52.538;6.108;2023-04-29T06:49:39;101681.19;;;9.64;100.00
73651;BME280;61944;52.538;6.108;2023-04-29T06:52:05;101687.78;;;9.71;100.00
73651;BME280;61944;52.538;6.108;2023-04-29T06:54:31;101682.13;;;9.68;100.00
73651;BME280;61944;52.538;6.108;2023-04-29T06:56:56;101699.06;;;9.87;100.00
73651;BME280;61944;52.538;6.108;2023-04-29T06:59:22;101700.72;;;9.76;100.00
73651;BME280;61944;52.538;6.108;2023-04-29T07:01:47;101699.41;;;9.86;100.00
73651;BME280;61944;52.538;6.108;2023-04-29T07:04:13;101707.84;;;9.73;100.00
73651;BME280;61944;52.538;6.108;2023-04-29T07:06:39;101713.53;;;9.89;100.00
73651;BME280;61944;52.538;6.108;2023-04-29T07:09:04;101720.50;;;9.95;100.00
73651;BME280;61944;52.538;6.108;2023-04-29T07:11:29;101730.50;;;9.96;100.00
73651;BME280;61944;52.538;6.108;2023-04-29T07:13:55;101734.47;;;10.08;100.00
73651;BME280;61944;52.538;6.108;2023-04-29T07:16:20;101729.03;;;10.27;100.00
73651;BME280;61944;52.538;6.108;2023-04-29T07:18:49;101743.06;;;10.15;100.00
73651;BME280;61944;52.538;6.108;2023-04-29T07:21:15;101740.47;;;10.22;100.00
73651;BME280;61944;52.538;6.108;2023-04-29T07:23:40;101739.03;;;10.28;100.00
73651;BME280;61944;52.538;6.108;2023-04-29T07:26:12;101751.91;;;10.29;100.00
73651;BME280;61944;52.538;6.108;2023-04-29T07:28:38;101745.97;;;10.31;100.00
73651;BME280;61944;52.538;6.108;2023-04-29T07:31:05;101754.56;;;10.38;100.00
73651;BME280;61944;52.538;6.108;2023-04-29T07:33:30;101764.94;;;10.37;100.00
73651;BME280;61944;52.538;6.108;2023-04-29T07:35:56;101767.28;;;10.35;100.00
73651;BME280;61944;52.538;6.108;2023-04-29T07:38:22;101764.94;;;10.37;100.00
73651;BME280;61944;52.538;6.108;2023-04-29T07:40:47;101765.75;;;10.38;100.00
73651;BME280;61944;52.538;6.108;2023-04-29T07:43:13;101764.59;;;10.27;100.00
73651;BME280;61944;52.538;6.108;2023-04-29T07:45:38;101773.81;;;10.40;100.00
73651;BME280;61944;52.538;6.108;2023-04-29T07:48:04;101770.28;;;10.43;100.00
73651;BME280;61944;52.538;6.108;2023-04-29T07:50:30;101780.09;;;10.36;100.00
73651;BME280;61944;52.538;6.108;2023-04-29T07:52:58;101777.25;;;10.49;100.00
73651;BME280;61944;52.538;6.108;2023-04-29T07:55:24;101782.06;;;10.48;100.00
73651;BME280;61944;52.538;6.108;2023-04-29T07:57:51;101779.00;;;10.53;100.00
73651;BME280;61944;52.538;6.108;2023-04-29T08:00:16;101781.44;;;10.55;100.00
73651;BME280;61944;52.538;6.108;2023-04-29T08:02:42;101787.44;;;10.69;100.00
73651;BME280;61944;52.538;6.108;2023-04-29T08:05:08;101787.63;;;10.76;100.00
73651;BME280;61944;52.538;6.108;2023-04-29T08:07:33;101787.44;;;10.69;100.00
73651;BME280;61944;52.538;6.108;2023-04-29T08:09:58;101782.31;;;10.71;100.00
73651;BME280;61944;52.538;6.108;2023-04-29T08:12:24;101777.53;;;10.72;100.00
73651;BME280;61944;52.538;6.108;2023-04-29T08:14:49;101788.00;;;10.75;100.00
73651;BME280;61944;52.538;6.108;2023-04-29T08:17:14;101797.09;;;11.00;100.00
73651;BME280;61944;52.538;6.108;2023-04-29T08:19:40;101807.63;;;11.35;100.00
73651;BME280;61944;52.538;6.108;2023-04-29T08:22:05;101794.44;;;11.19;100.00
73651;BME280;61944;52.538;6.108;2023-04-29T08:24:30;101808.72;;;11.30;100.00
73651;BME280;61944;52.538;6.108;2023-04-29T08:26:57;101810.88;;;11.37;100.00
73651;BME280;61944;52.538;6.108;2023-04-29T08:29:23;101808.91;;;11.22;100.00
73651;BME280;61944;52.538;6.108;2023-04-29T08:31:49;101821.91;;;11.30;100.00
73651;BME280;61944;52.538;6.108;2023-04-29T08:34:14;101816.22;;;11.26;100.00
73651;BME280;61944;52.538;6.108;2023-04-29T08:36:40;101820.69;;;11.15;100.00
73651;BME280;61944;52.538;6.108;2023-04-29T08:39:05;101823.53;;;11.31;100.00
73651;BME280;61944;52.538;6.108;2023-04-29T08:41:31;101824.00;;;11.65;100.00
73651;BME280;61944;52.538;6.108;2023-04-29T08:43:58;101835.69;;;11.67;100.00
73651;BME280;61944;52.538;6.108;2023-04-29T08:46:25;101833.06;;;11.58;100.00
73651;BME280;61944;52.538;6.108;2023-04-29T08:48:51;101830.34;;;11.77;100.00
73651;BME280;61944;52.538;6.108;2023-04-29T08:51:17;101834.03;;;11.66;100.00
73651;BME280;61944;52.538;6.108;2023-04-29T08:53:43;101835.28;;;11.84;100.00
73651;BME280;61944;52.538;6.108;2023-04-29T08:56:12;101840.00;;;11.80;100.00
73651;BME280;61944;52.538;6.108;2023-04-29T08:58:39;101849.63;;;11.79;100.00
73651;BME280;61944;52.538;6.108;2023-04-29T09:01:08;101850.50;;;11.83;100.00
73651;BME280;61944;52.538;6.108;2023-04-29T09:03:48;101846.16;;;11.86;100.00
73651;BME280;61944;52.538;6.108;2023-04-29T09:06:15;101856.31;;;11.90;100.00
73651;BME280;61944;52.538;6.108;2023-04-29T09:08:41;101866.44;;;11.79;100.00
73651;BME280;61944;52.538;6.108;2023-04-29T09:11:10;101854.13;;;11.68;100.00
73651;BME280;61944;52.538;6.108;2023-04-29T09:13:36;101846.09;;;11.66;100.00
73651;BME280;61944;52.538;6.108;2023-04-29T09:16:02;101853.13;;;11.60;100.00
73651;BME280;61944;52.538;6.108;2023-04-29T09:18:47;101860.09;;;11.50;100.00
73651;BME280;61944;52.538;6.108;2023-04-29T09:23:38;101862.06;;;11.66;100.00
73651;BME280;61944;52.538;6.108;2023-04-29T09:26:03;101853.97;;;11.76;100.00
73651;BME280;61944;52.538;6.108;2023-04-29T09:28:28;101856.13;;;11.83;100.00
73651;BME280;61944;52.538;6.108;2023-04-29T09:30:54;101855.94;;;11.76;100.00
73651;BME280;61944;52.538;6.108;2023-04-29T09:33:19;101863.00;;;12.02;100.00
73651;BME280;61944;52.538;6.108;2023-04-29T09:35:44;101870.41;;;12.10;100.00
73651;BME280;61944;52.538;6.108;2023-04-29T09:38:14;101881.09;;;12.20;100.00
73651;BME280;61944;52.538;6.108;2023-04-29T09:40:42;101867.00;;;12.00;100.00
73651;BME280;61944;52.538;6.108;2023-04-29T09:43:15;101871.25;;;11.94;100.00
73651;BME280;61944;52.538;6.108;2023-04-29T09:45:46;101874.31;;;12.21;100.00
73651;BME280;61944;52.538;6.108;2023-04-29T09:48:13;101871.25;;;12.46;100.00
73651;BME280;61944;52.538;6.108;2023-04-29T09:50:41;101870.53;;;12.88;100.00
73651;BME280;61944;52.538;6.108;2023-04-29T09:53:09;101880.63;;;12.69;100.00
73651;BME280;61944;52.538;6.108;2023-04-29T09:55:36;101886.16;;;13.05;99.53
73651;BME280;61944;52.538;6.108;2023-04-29T09:58:02;101892.06;;;13.19;98.55
73651;BME280;61944;52.538;6.108;2023-04-29T10:00:32;101885.16;;;12.58;97.38
73651;BME280;61944;52.538;6.108;2023-04-29T10:03:00;101885.34;;;13.04;98.64
73651;BME280;61944;52.538;6.108;2023-04-29T10:05:28;101885.16;;;12.58;98.35
73651;BME280;61944;52.538;6.108;2023-04-29T10:07:55;101888.16;;;12.65;96.35
73651;BME280;61944;52.538;6.108;2023-04-29T10:10:22;101893.56;;;12.93;99.86
73651;BME280;61944;52.538;6.108;2023-04-29T10:12:52;101899.97;;;13.13;95.92
73651;BME280;61944;52.538;6.108;2023-04-29T10:15:25;101906.84;;;12.96;95.85
73651;BME280;61944;52.538;6.108;2023-04-29T10:17:57;101899.84;;;12.67;97.89
73651;BME280;61944;52.538;6.108;2023-04-29T10:20:24;101901.13;;;12.54;95.03
73651;BME280;61944;52.538;6.108;2023-04-29T10:22:51;101891.22;;;12.60;100.00
73651;BME280;61944;52.538;6.108;2023-04-29T10:25:18;101895.03;;;13.07;97.28
73651;BME280;61944;52.538;6.108;2023-04-29T10:27:45;101894.09;;;13.61;93.29
73651;BME280;61944;52.538;6.108;2023-04-29T10:30:15;101887.56;;;13.34;91.72
73651;BME280;61944;52.538;6.108;2023-04-29T10:32:47;101892.06;;;13.19;95.44
73651;BME280;61944;52.538;6.108;2023-04-29T10:35:14;101899.31;;;13.20;92.93
73651;BME280;61944;52.538;6.108;2023-04-29T10:37:44;101893.25;;;13.18;94.21
73651;BME280;61944;52.538;6.108;2023-04-29T10:40:30;101893.78;;;13.04;96.62
73651;BME280;61944;52.538;6.108;2023-04-29T10:43:01;101893.91;;;13.50;92.73
73651;BME280;61944;52.538;6.108;2023-04-29T10:45:30;101883.06;;;13.29;88.97
73651;BME280;61944;52.538;6.108;2023-04-29T10:53:14;101889.84;;;13.71;90.44
73651;BME280;61944;52.538;6.108;2023-04-29T10:55:41;101900.16;;;13.86;81.45
73651;BME280;61944;52.538;6.108;2023-04-29T10:58:41;101900.47;;;14.31;79.80
73651;BME280;61944;52.538;6.108;2023-04-29T11:01:12;101901.19;;;14.24;82.15
73651;BME280;61944;52.538;6.108;2023-04-29T11:03:46;101909.19;;;14.22;85.02
73651;BME280;61944;52.538;6.108;2023-04-29T11:06:12;101907.59;;;13.98;86.33
73651;BME280;61944;52.538;6.108;2023-04-29T11:08:38;101906.84;;;14.01;83.56
73651;BME280;61944;52.538;6.108;2023-04-29T11:11:08;101908.63;;;14.36;82.97
73651;BME280;61944;52.538;6.108;2023-04-29T11:13:38;101907.63;;;14.51;79.57
73651;BME280;61944;52.538;6.108;2023-04-29T11:16:05;101902.91;;;14.55;81.90
73651;BME280;61944;52.538;6.108;2023-04-29T11:18:32;101904.69;;;15.01;76.40
73651;BME280;61944;52.538;6.108;2023-04-29T11:23:32;101897.06;;;15.39;74.90
73651;BME280;61944;52.538;6.108;2023-04-29T11:25:58;101903.88;;;15.31;75.01
73651;BME280;61944;52.538;6.108;2023-04-29T11:28:26;101896.22;;;15.31;73.08
73651;BME280;61944;52.538;6.108;2023-04-29T11:30:52;101902.75;;;15.42;71.86
73651;BME280;61944;52.538;6.108;2023-04-29T11:33:20;101902.22;;;14.96;70.72
73651;BME280;61944;52.538;6.108;2023-04-29T11:35:46;101899.56;;;15.44;72.09
73651;BME280;61944;52.538;6.108;2023-04-29T11:38:11;101892.00;;;15.55;70.84
73651;BME280;61944;52.538;6.108;2023-04-29T11:40:41;101901.50;;;15.74;69.41
73651;BME280;61944;52.538;6.108;2023-04-29T11:43:07;101894.19;;;15.32;69.38
73651;BME280;61944;52.538;6.108;2023-04-29T11:45:34;101885.66;;;15.65;71.86
73651;BME280;61944;52.538;6.108;2023-04-29T11:48:00;101902.59;;;15.24;70.99
73651;BME280;61944;52.538;6.108;2023-04-29T11:50:26;101898.84;;;14.83;70.99
73651;BME280;61944;52.538;6.108;2023-04-29T11:52:51;101903.56;;;15.39;72.37
73651;BME280;61944;52.538;6.108;2023-04-29T11:55:18;101902.31;;;15.37;68.58
73651;BME280;61944;52.538;6.108;2023-04-29T11:57:43;101900.25;;;15.71;63.35
73651;BME280;61944;52.538;6.108;2023-04-29T12:00:09;101903.53;;;15.77;62.61
73651;BME280;61944;52.538;6.108;2023-04-29T12:02:45;101904.09;;;15.93;64.18
73651;BME280;61944;52.538;6.108;2023-04-29T12:05:11;101896.97;;;15.65;64.60
73651;BME280;61944;52.538;6.108;2023-04-29T12:07:38;101908.63;;;15.64;63.48
73651;BME280;61944;52.538;6.108;2023-04-29T12:10:10;101914.16;;;15.91;67.89
73651;BME280;61944;52.538;6.108;2023-04-29T12:12:36;101920.16;;;16.37;68.01
73651;BME280;61944;52.538;6.108;2023-04-29T12:15:05;101915.44;;;16.49;65.63
73651;BME280;61944;52.538;6.108;2023-04-29T12:17:31;101910.94;;;16.40;66.22
73651;BME280;61944;52.538;6.108;2023-04-29T12:19:57;101919.44;;;16.48;63.84
73651;BME280;61944;52.538;6.108;2023-04-29T12:22:30;101910.25;;;16.65;62.28
73651;BME280;61944;52.538;6.108;2023-04-29T12:24:56;101904.41;;;16.99;62.55
73651;BME280;61944;52.538;6.108;2023-04-29T12:27:21;101908.56;;;16.50;69.62
73651;BME280;61944;52.538;6.108;2023-04-29T12:29:46;101907.50;;;16.13;64.71
73651;BME280;61944;52.538;6.108;2023-04-29T12:32:16;101918.88;;;16.24;65.46
73651;BME280;61944;52.538;6.108;2023-04-29T12:34:41;101904.13;;;16.49;64.25
73651;BME280;61944;52.538;6.108;2023-04-29T12:37:08;101899.00;;;16.76;63.27
73651;BME280;61944;52.538;6.108;2023-04-29T12:39:34;101905.50;;;16.76;63.59
73651;BME280;61944;52.538;6.108;2023-04-29T12:42:00;101923.19;;;16.70;63.24
73651;BME280;61944;52.538;6.108;2023-04-29T12:44:35;101916.69;;;16.58;63.88
73651;BME280;61944;52.538;6.108;2023-04-29T12:47:11;101918.06;;;16.27;65.70
73651;BME280;61944;52.538;6.108;2023-04-29T12:49:40;101923.91;;;16.49;64.01
73651;BME280;61944;52.538;6.108;2023-04-29T12:52:07;101925.06;;;17.10;63.17
73651;BME280;61944;52.538;6.108;2023-04-29T12:54:39;101925.81;;;17.00;62.61
73651;BME280;61944;52.538;6.108;2023-04-29T12:57:10;101925.28;;;16.17;65.21
73651;BME280;61944;52.538;6.108;2023-04-29T12:59:36;101898.66;;;16.18;65.84
73651;BME280;61944;52.538;6.108;2023-04-29T13:02:02;101900.63;;;16.73;65.10
73651;BME280;61944;52.538;6.108;2023-04-29T13:04:27;101910.41;;;16.90;63.05
73651;BME280;61944;52.538;6.108;2023-04-29T13:06:53;101920.72;;;17.38;61.72